Terminal Aerodrome Forecast
Issued by NWS Mt. Holly, NJ

Home | Current Version | Previous Version | Text Only | Print | Product List | Glossary On
Versions: 1 2 3 4 5 6 7 8 9 10 11 12 13 14 15 16 17 18 19 20 21 22 23 24 25 26 27
000
FTUS41 KPHI 052326
TAFABE
TAF
KABE 052326Z 0600/0624 05006KT P6SM OVC035
      TEMPO 0602/0606 OVC025
     FM060600 03006KT P6SM OVC015
     FM060900 03008KT 4SM -RA BR OVC015
     FM061100 03010KT 3SM RA BR OVC009=

USA.gov is the U.S. government's official web portal to all federal, state and local government web resources and services.